Terminal Aerodrome Forecast
Issued by NWS

Home | Current Version | Previous Version | Text Only | Print | Product List | Glossary On
Versions: 1 2 3 4 5 6 7 8 9 10 11 12 13 14 15 16 17 18 19
748
FTUS41 KBTV 091732
TAFMSS
TAF
KMSS 091732Z 0918/1018 28015G20KT P6SM OVC035
     FM100000 27010KT P6SM BKN050
     FM100200 26009KT P6SM SCT050
     FM100900 26005KT P6SM BKN050
     FM101200 VRB03KT P6SM BKN045=

USA.gov is the U.S. government's official web portal to all federal, state and local government web resources and services.